Time;durP1;ratioP1;P1;durP2;ratioP2;P2;SDS_P1;SDS_P2;PMS_P1;PMS_P2;Temp;Humidity;BMP_temperature;BMP_pressure;BME280_temperature;BME280_humidity;BME280_pressure;Samples;Min_cycle;Max_cycle;Signal;HPM_P1;HPM_P2
2022/10/31 00:02:02;;;;;;;6.15;2.22;;;11.30;99.90;;;;;;4997890;28;20062;-79
2022/10/31 00:04:28;;;;;;;4.47;2.20;;;11.30;99.90;;;;;;4980604;28;20445;-79
2022/10/31 00:06:53;;;;;;;5.40;2.40;;;11.30;99.90;;;;;;4998380;28;20034;-78
2022/10/31 00:09:19;;;;;;;10.25;2.90;;;11.30;99.90;;;;;;4998052;28;20025;-79
2022/10/31 00:11:44;;;;;;;5.55;2.15;;;11.30;99.90;;;;;;4998608;28;20018;-79
2022/10/31 00:14:10;;;;;;;6.97;2.85;;;11.30;99.90;;;;;;4998641;28;20034;-79
2022/10/31 00:16:36;;;;;;;8.50;2.40;;;11.30;99.90;;;;;;4998629;28;20478;-79
2022/10/31 00:19:05;;;;;;;7.47;1.92;;;11.30;99.90;;;;;;4999084;28;20534;-79
2022/10/31 00:21:31;;;;;;;9.07;2.53;;;11.40;99.90;;;;;;4981448;28;20024;-79
2022/10/31 00:23:58;;;;;;;4.68;2.05;;;11.30;99.90;;;;;;4980814;28;20042;-79
2022/10/31 00:26:24;;;;;;;7.25;2.20;;;11.30;99.90;;;;;;4998637;28;20118;-79
2022/10/31 00:28:50;;;;;;;6.47;2.28;;;11.30;99.90;;;;;;4998462;28;20054;-78
2022/10/31 00:31:17;;;;;;;3.78;1.83;;;11.30;99.90;;;;;;4980818;28;20065;-79
2022/10/31 00:33:42;;;;;;;7.82;2.55;;;11.30;99.90;;;;;;4998289;28;20022;-79
2022/10/31 00:36:12;;;;;;;9.38;2.85;;;11.30;99.90;;;;;;4998369;28;20023;-79
2022/10/31 00:38:38;;;;;;;5.57;1.95;;;11.30;99.90;;;;;;4998525;28;20073;-79
2022/10/31 00:41:04;;;;;;;5.20;2.13;;;11.30;99.90;;;;;;4980908;28;20030;-79
2022/10/31 00:43:29;;;;;;;5.65;2.00;;;11.30;99.90;;;;;;4998091;28;20077;-79
2022/10/31 00:45:55;;;;;;;4.43;2.67;;;12.20;99.90;;;;;;4980824;28;20029;-79
2022/10/31 00:48:20;;;;;;;7.35;2.90;;;11.30;99.90;;;;;;4998262;28;20030;-78
2022/10/31 00:50:46;;;;;;;4.05;1.85;;;11.30;99.90;;;;;;4998078;28;20101;-79
2022/10/31 00:53:11;;;;;;;6.88;2.47;;;11.20;99.90;;;;;;4979747;28;20077;-79
2022/10/31 00:55:37;;;;;;;16.27;2.95;;;11.20;99.90;;;;;;4997711;28;20029;-79
2022/10/31 00:58:03;;;;;;;5.53;2.30;;;;;;;;;;4997784;28;20101;-79
2022/10/31 01:00:28;;;;;;;4.97;2.28;;;11.30;99.90;;;;;;4998019;28;20109;-79
2022/10/31 01:02:54;;;;;;;5.10;2.05;;;11.30;99.90;;;;;;4997987;28;20026;-78
2022/10/31 01:05:19;;;;;;;4.88;2.05;;;11.30;99.90;;;;;;4979620;28;20026;-78
2022/10/31 01:07:45;;;;;;;5.82;1.65;;;11.40;99.90;;;;;;4997455;28;20027;-78
2022/10/31 01:10:11;;;;;;;5.72;2.28;;;11.40;99.90;;;;;;4997420;28;20440;-79
2022/10/31 01:12:41;;;;;;;7.32;2.53;;;11.40;99.90;;;;;;4996801;28;20592;-79
2022/10/31 01:15:08;;;;;;;5.53;1.90;;;11.40;99.90;;;;;;4997637;28;20023;-79
2022/10/31 01:17:34;;;;;;;7.53;1.88;;;11.40;99.90;;;;;;4996965;28;20515;-78
2022/10/31 01:19:59;;;;;;;5.90;1.90;;;11.40;99.90;;;;;;4997489;28;20023;-78
2022/10/31 01:24:56;;;;;;;9.77;1.90;;;11.30;99.90;;;;;;5032394;28;20447;-74
2022/10/31 01:27:22;;;;;;;4.43;1.27;;;11.40;99.90;;;;;;5033401;28;20075;-73
2022/10/31 01:29:47;;;;;;;4.07;1.70;;;11.30;99.90;;;;;;5015777;28;20021;-74
2022/10/31 01:32:13;;;;;;;3.95;1.50;;;11.20;99.90;;;;;;5033350;28;20531;-74
2022/10/31 01:34:38;;;;;;;4.00;1.80;;;11.00;99.90;;;;;;4996069;28;20053;-74
2022/10/31 01:37:04;;;;;;;5.45;2.08;;;10.90;99.90;;;;;;5013545;28;20029;-74
2022/10/31 01:39:29;;;;;;;4.22;1.60;;;10.80;99.90;;;;;;5013558;28;20053;-73
2022/10/31 01:41:55;;;;;;;5.00;2.38;;;11.50;99.90;;;;;;5013585;28;20084;-74
2022/10/31 01:44:20;;;;;;;4.63;1.50;;;10.70;99.90;;;;;;4995830;28;20084;-73
2022/10/31 01:46:52;;;;;;;8.18;2.35;;;10.60;99.90;;;;;;5013459;28;20424;-73
2022/10/31 01:49:23;;;;;;;4.00;2.78;;;10.60;99.90;;;;;;4996057;28;20399;-75
2022/10/31 01:51:57;;;;;;;7.47;1.73;;;10.90;99.90;;;;;;5013986;28;20052;-74
2022/10/31 01:54:30;;;;;;;4.30;1.60;;;10.40;99.90;;;;;;5013240;28;20026;-74
2022/10/31 01:56:59;;;;;;;5.97;1.58;;;10.30;99.90;;;;;;5013430;28;20076;-74
2022/10/31 01:59:27;;;;;;;6.00;1.83;;;10.30;99.90;;;;;;5013261;28;20113;-74
2022/10/31 02:01:53;;;;;;;6.40;2.25;;;10.30;99.90;;;;;;5013308;28;20061;-74
2022/10/31 02:04:21;;;;;;;6.85;2.40;;;10.20;99.90;;;;;;4995587;28;20022;-74
2022/10/31 02:07:14;;;;;;;5.53;1.97;;;10.20;99.90;;;;;;4995784;28;20088;-74
2022/10/31 02:09:40;;;;;;;4.95;2.35;;;10.20;99.90;;;;;;5013891;28;20033;-74
2022/10/31 02:12:09;;;;;;;6.63;2.35;;;10.10;99.90;;;;;;4995735;28;20022;-74
2022/10/31 02:14:36;;;;;;;8.30;2.72;;;10.10;99.90;;;;;;5013181;28;20034;-74
2022/10/31 02:17:01;;;;;;;4.10;2.13;;;10.00;99.90;;;;;;4995632;28;20121;-73
2022/10/31 02:19:56;;;;;;;4.30;2.22;;;10.00;99.90;;;;;;4995669;28;20173;-73
2022/10/31 02:22:37;;;;;;;9.05;2.30;;;9.80;99.90;;;;;;4995464;28;20026;-73
2022/10/31 02:25:03;;;;;;;7.63;2.33;;;9.90;99.90;;;;;;4997859;28;20037;-73
2022/10/31 02:27:47;;;;;;;4.85;2.65;;;9.90;99.90;;;;;;5017047;28;20385;-73
2022/10/31 02:30:22;;;;;;;7.20;2.85;;;9.80;99.90;;;;;;5017010;28;20028;-74
2022/10/31 02:33:15;;;;;;;6.35;2.65;;;9.80;99.90;;;;;;4999331;28;20014;-73
2022/10/31 02:35:50;;;;;;;6.13;2.20;;;9.80;99.90;;;;;;5016857;28;20420;-74
2022/10/31 02:38:36;;;;;;;4.18;2.00;;;9.70;99.90;;;;;;5016651;28;20464;-74
2022/10/31 02:41:07;;;;;;;4.38;2.45;;;9.60;99.90;;;;;;4999210;28;20040;-74
2022/10/31 02:43:48;;;;;;;4.43;1.83;;;9.50;99.90;;;;;;5016436;28;20054;-74
2022/10/31 02:46:22;;;;;;;4.22;2.13;;;9.50;99.90;;;;;;5016531;28;20109;-74
2022/10/31 02:48:50;;;;;;;7.13;2.15;;;9.40;99.90;;;;;;4998971;28;20014;-73
2022/10/31 02:51:17;;;;;;;5.13;2.75;;;9.30;99.90;;;;;;5016544;28;20389;-73
2022/10/31 02:53:43;;;;;;;3.58;2.00;;;9.20;99.90;;;;;;4998810;28;20022;-74
2022/10/31 02:56:18;;;;;;;3.38;1.60;;;9.20;99.90;;;;;;5016341;28;20030;-74
2022/10/31 02:58:51;;;;;;;6.57;1.98;;;9.20;99.90;;;;;;5016928;28;20022;-74
2022/10/31 03:01:33;;;;;;;6.85;2.42;;;9.10;99.90;;;;;;5016375;28;20080;-74
2022/10/31 03:04:29;;;;;;;8.25;2.28;;;9.10;99.90;;;;;;4998499;28;20547;-74
2022/10/31 03:07:07;;;;;;;3.83;2.28;;;9.20;99.90;;;;;;4998600;28;20034;-74
2022/10/31 03:09:48;;;;;;;8.73;2.57;;;9.20;99.90;;;;;;5016722;28;20025;-74
2022/10/31 03:12:34;;;;;;;6.57;2.30;;;9.20;99.90;;;;;;5016098;28;20018;-74
2022/10/31 03:15:32;;;;;;;6.22;2.60;;;9.20;99.90;;;;;;5016294;28;20030;-74
2022/10/31 03:18:17;;;;;;;8.43;3.88;;;9.20;99.90;;;;;;5002904;28;20034;-74
2022/10/31 03:20:50;;;;;;;8.48;2.97;;;9.20;99.90;;;;;;4998426;28;20032;-74
2022/10/31 03:23:18;;;;;;;8.07;3.80;;;9.20;99.90;;;;;;5016303;28;20065;-74
2022/10/31 03:25:46;;;;;;;10.45;3.63;;;9.20;99.90;;;;;;4998358;28;20105;-74
2022/10/31 03:28:14;;;;;;;8.48;3.60;;;9.20;99.90;;;;;;5015866;28;20384;-74
2022/10/31 03:30:42;;;;;;;8.88;3.67;;;9.30;99.90;;;;;;5015833;28;20022;-74
2022/10/31 03:33:12;;;;;;;9.80;4.15;;;9.30;99.90;;;;;;5015735;28;20020;-74
2022/10/31 03:35:44;;;;;;;7.70;3.88;;;9.30;99.90;;;;;;5014556;28;20030;-74
2022/10/31 03:38:12;;;;;;;10.07;4.50;;;9.30;99.90;;;;;;5016134;28;20030;-74
2022/10/31 03:40:42;;;;;;;9.90;4.03;;;9.30;99.90;;;;;;4998066;28;20014;-74
2022/10/31 03:43:14;;;;;;;7.13;3.47;;;9.30;99.90;;;;;;4998004;28;20608;-74
2022/10/31 03:45:45;;;;;;;10.50;4.22;;;9.30;99.90;;;;;;5015575;28;20529;-74
2022/10/31 03:48:12;;;;;;;9.57;4.47;;;9.20;99.90;;;;;;4998036;28;20384;-74
2022/10/31 03:51:03;;;;;;;9.50;4.68;;;9.20;99.90;;;;;;5015479;28;20026;-74
2022/10/31 03:53:34;;;;;;;11.63;4.70;;;9.20;99.90;;;;;;4993194;28;20040;-74
2022/10/31 03:56:12;;;;;;;8.43;4.95;;;9.20;99.90;;;;;;4997702;28;20076;-74
2022/10/31 03:58:53;;;;;;;10.32;5.03;;;9.20;99.90;;;;;;5015284;28;20029;-74
2022/10/31 04:01:20;;;;;;;13.93;4.72;;;9.20;99.90;;;;;;5015204;28;20026;-74
2022/10/31 04:03:46;;;;;;;8.43;3.95;;;9.20;99.90;;;;;;5015166;28;20030;-74
2022/10/31 04:06:14;;;;;;;7.85;4.43;;;9.20;99.90;;;;;;5014019;28;20369;-74
2022/10/31 04:08:45;;;;;;;10.13;4.20;;;9.10;99.90;;;;;;5013788;28;20028;-74
2022/10/31 04:11:13;;;;;;;10.13;4.22;;;9.10;99.90;;;;;;4997807;28;20366;-74
2022/10/31 04:13:40;;;;;;;10.37;4.70;;;9.00;99.90;;;;;;5014990;28;20024;-74
2022/10/31 04:16:06;;;;;;;10.98;5.32;;;8.90;99.90;;;;;;5015043;28;20037;-74
2022/10/31 04:18:32;;;;;;;10.48;5.25;;;8.90;99.90;;;;;;4997214;28;20034;-74
2022/10/31 04:21:06;;;;;;;14.32;5.47;;;9.00;99.90;;;;;;5014826;28;20439;-74
2022/10/31 04:23:32;;;;;;;13.75;4.82;;;9.00;99.90;;;;;;5014494;28;20448;-74
2022/10/31 04:25:58;;;;;;;10.20;4.85;;;9.10;99.90;;;;;;5012532;28;20026;-74
2022/10/31 04:28:23;;;;;;;10.35;4.55;;;9.00;99.90;;;;;;5013769;28;20476;-74
2022/10/31 04:30:49;;;;;;;8.70;4.47;;;9.00;99.90;;;;;;5014018;28;20030;-74
2022/10/31 04:33:15;;;;;;;8.85;4.82;;;8.90;99.90;;;;;;5013664;28;20022;-74
2022/10/31 04:35:41;;;;;;;11.85;4.90;;;8.90;99.90;;;;;;5013977;28;20029;-74
2022/10/31 04:38:06;;;;;;;10.02;4.90;;;8.90;99.90;;;;;;5013825;28;20034;-74
2022/10/31 04:40:32;;;;;;;9.05;5.00;;;8.90;99.90;;;;;;4996014;28;20046;-74
2022/10/31 04:42:57;;;;;;;9.80;5.45;;;8.90;99.90;;;;;;4995836;28;20543;-74
2022/10/31 04:45:23;;;;;;;13.13;5.20;;;9.00;99.90;;;;;;5013362;28;20018;-74
2022/10/31 04:47:48;;;;;;;9.73;4.65;;;9.00;99.90;;;;;;5013326;28;20076;-74
2022/10/31 04:50:14;;;;;;;12.05;5.85;;;9.00;99.90;;;;;;5013497;28;20026;-74
2022/10/31 04:52:44;;;;;;;10.07;4.82;;;9.00;99.90;;;;;;5013773;28;20026;-74
2022/10/31 04:55:11;;;;;;;9.50;4.15;;;9.00;99.90;;;;;;5013612;28;20036;-74
2022/10/31 04:57:41;;;;;;;9.52;4.32;;;9.00;99.90;;;;;;5013556;28;20523;-74
2022/10/31 05:00:08;;;;;;;10.77;4.57;;;8.80;99.90;;;;;;5013540;28;20064;-74
2022/10/31 05:02:34;;;;;;;10.55;4.78;;;8.80;99.90;;;;;;5013194;28;20049;-74
2022/10/31 05:04:59;;;;;;;11.93;4.13;;;8.80;99.90;;;;;;5012009;28;20053;-74
2022/10/31 05:07:25;;;;;;;6.75;3.92;;;8.70;99.90;;;;;;5013328;28;20022;-74
2022/10/31 05:09:50;;;;;;;9.10;4.07;;;8.70;99.90;;;;;;4995750;28;20014;-74
2022/10/31 05:12:16;;;;;;;7.57;4.10;;;8.60;99.90;;;;;;5013097;28;20498;-74
2022/10/31 05:14:41;;;;;;;11.60;4.68;;;8.60;99.90;;;;;;5012255;28;20059;-74
2022/10/31 05:17:07;;;;;;;8.60;4.35;;;8.50;99.90;;;;;;5013687;28;20051;-74
2022/10/31 05:19:32;;;;;;;10.10;4.93;;;8.50;99.90;;;;;;5011895;28;20052;-74
2022/10/31 05:21:58;;;;;;;8.88;4.68;;;8.60;99.90;;;;;;4995505;28;20113;-74
2022/10/31 05:24:23;;;;;;;14.02;4.85;;;8.60;99.90;;;;;;4976914;28;1058484;-74
2022/10/31 05:26:49;;;;;;;7.47;4.47;;;8.60;99.90;;;;;;4996126;28;20076;-74
2022/10/31 05:29:15;;;;;;;10.80;4.65;;;8.60;99.90;;;;;;5013730;28;20528;-74
2022/10/31 05:31:40;;;;;;;10.82;5.18;;;8.50;99.90;;;;;;5013748;28;20026;-74
2022/10/31 05:34:06;;;;;;;8.98;5.00;;;8.50;99.90;;;;;;5013635;28;20033;-74
2022/10/31 05:36:32;;;;;;;15.00;5.18;;;8.50;99.90;;;;;;5013756;28;20018;-74
2022/10/31 05:38:57;;;;;;;12.13;4.93;;;8.50;99.90;;;;;;4996013;28;20026;-74
2022/10/31 05:41:23;;;;;;;8.55;4.53;;;8.50;99.90;;;;;;5014197;28;20045;-74
2022/10/31 05:43:48;;;;;;;13.05;4.10;;;8.40;99.90;;;;;;4996141;28;20026;-74
2022/10/31 05:46:14;;;;;;;14.23;4.63;;;8.40;99.90;;;;;;4995953;28;20030;-74
2022/10/31 05:48:39;;;;;;;9.23;4.32;;;8.40;99.90;;;;;;5013618;28;20030;-74
2022/10/31 05:51:05;;;;;;;9.02;5.07;;;8.40;99.90;;;;;;5012296;28;20022;-73
2022/10/31 05:53:30;;;;;;;8.95;4.57;;;8.30;99.90;;;;;;4995887;28;20026;-74
2022/10/31 05:55:56;;;;;;;10.00;4.88;;;8.30;99.90;;;;;;4995964;28;20056;-74
2022/10/31 05:58:21;;;;;;;10.57;4.85;;;8.30;99.90;;;;;;5012317;28;20052;-74
2022/10/31 06:00:47;;;;;;;9.70;4.63;;;8.20;99.90;;;;;;5015893;28;20029;-74
2022/10/31 06:03:12;;;;;;;12.98;4.60;;;8.20;99.90;;;;;;5000120;28;20036;-74
2022/10/31 06:05:38;;;;;;;11.25;4.30;;;8.20;99.90;;;;;;4999868;28;20116;-74
2022/10/31 06:08:04;;;;;;;11.10;4.55;;;8.10;99.90;;;;;;5017412;28;20018;-74
2022/10/31 06:10:29;;;;;;;11.75;5.03;;;8.10;99.90;;;;;;5017390;28;20026;-74
2022/10/31 06:12:55;;;;;;;12.73;5.47;;;8.10;99.90;;;;;;5017254;28;20026;-74
2022/10/31 06:15:21;;;;;;;35.92;6.88;;;8.10;99.90;;;;;;4999662;28;20026;-74
2022/10/31 06:17:56;;;;;;;10.30;4.95;;;8.10;99.90;;;;;;5015949;28;20093;-74
2022/10/31 06:20:22;;;;;;;94.55;8.27;;;8.20;99.90;;;;;;5017215;28;20033;-74
2022/10/31 06:22:47;;;;;;;11.30;4.88;;;8.10;99.90;;;;;;4999351;28;20029;-74
2022/10/31 06:25:13;;;;;;;13.32;4.82;;;8.20;99.90;;;;;;5017587;28;20469;-74
2022/10/31 06:27:38;;;;;;;12.27;5.45;;;8.20;99.90;;;;;;5017239;28;20032;-74
2022/10/31 06:30:04;;;;;;;17.42;6.40;;;8.30;99.90;;;;;;5015837;28;20083;-74
2022/10/31 06:32:30;;;;;;;21.83;7.22;;;8.40;99.90;;;;;;5017425;28;20057;-75
2022/10/31 06:34:55;;;;;;;25.45;7.03;;;8.50;99.90;;;;;;5016817;28;20108;-74
2022/10/31 06:37:21;;;;;;;29.30;9.05;;;8.60;99.90;;;;;;5015725;28;20088;-75
2022/10/31 06:39:46;;;;;;;30.70;8.70;;;8.70;99.90;;;;;;5017659;28;20022;-77
2022/10/31 06:42:12;;;;;;;39.03;8.48;;;8.80;99.90;;;;;;5015939;28;20037;-77
2022/10/31 06:44:37;;;;;;;34.20;10.95;;;8.90;99.90;;;;;;5016854;28;20097;-77
2022/10/31 06:47:04;;;;;;;58.17;11.05;;;9.00;99.90;;;;;;5016836;28;20022;-77
2022/10/31 06:49:30;;;;;;;72.13;11.35;;;9.20;99.90;;;;;;5017242;28;20030;-76
2022/10/31 06:51:55;;;;;;;73.40;11.23;;;9.30;99.90;;;;;;5016824;28;20022;-76
2022/10/31 06:54:21;;;;;;;78.97;12.45;;;9.30;99.90;;;;;;4998999;28;20113;-76
2022/10/31 06:56:47;;;;;;;82.55;10.77;;;9.40;99.90;;;;;;4999514;28;20030;-76
2022/10/31 06:59:14;;;;;;;78.03;10.27;;;9.50;99.90;;;;;;4999029;28;20077;-77
2022/10/31 07:01:39;;;;;;;57.80;10.23;;;9.60;99.90;;;;;;5016815;28;20120;-77
2022/10/31 07:04:05;;;;;;;77.10;11.10;;;9.60;99.90;;;;;;5016356;28;20512;-76
2022/10/31 07:06:30;;;;;;;77.80;9.93;;;9.70;99.90;;;;;;4998853;28;20460;-77
2022/10/31 07:08:56;;;;;;;52.22;9.18;;;9.80;99.90;;;;;;5016475;28;20022;-76
2022/10/31 07:11:21;;;;;;;66.53;10.80;;;9.80;99.90;;;;;;5016087;28;20014;-76
2022/10/31 07:13:47;;;;;;;40.25;10.88;;;9.90;99.90;;;;;;4999078;28;20014;-76
2022/10/31 07:16:13;;;;;;;61.50;10.68;;;10.00;99.90;;;;;;4998746;28;20432;-76
2022/10/31 07:18:39;;;;;;;45.40;10.30;;;10.00;99.90;;;;;;4998651;28;20026;-77
2022/10/31 07:21:05;;;;;;;31.38;11.02;;;10.10;99.90;;;;;;4998332;28;20068;-77
2022/10/31 07:23:31;;;;;;;41.60;10.70;;;10.10;99.90;;;;;;5016051;28;20030;-77
2022/10/31 07:25:58;;;;;;;60.42;10.93;;;10.10;99.90;;;;;;5015868;28;20531;-76
2022/10/31 07:28:25;;;;;;;40.10;10.15;;;10.10;99.90;;;;;;5014596;28;20071;-76
2022/10/31 07:30:52;;;;;;;26.30;9.13;;;10.20;99.90;;;;;;4995015;28;20474;-76
2022/10/31 07:33:18;;;;;;;67.00;10.98;;;10.20;99.90;;;;;;4994974;28;20023;-76
2022/10/31 07:35:43;;;;;;;47.38;9.35;;;10.30;99.90;;;;;;4994974;28;20030;-75
2022/10/31 07:38:11;;;;;;;44.63;11.02;;;10.40;99.90;;;;;;4995116;28;20053;-75
2022/10/31 07:40:39;;;;;;;41.38;10.00;;;10.40;99.90;;;;;;4994813;28;20401;-76
2022/10/31 07:43:05;;;;;;;22.05;10.13;;;10.50;99.90;;;;;;4996307;28;20022;-76
2022/10/31 07:45:30;;;;;;;32.70;11.25;;;10.40;99.90;;;;;;4995993;28;20389;-76
2022/10/31 07:47:56;;;;;;;25.90;9.85;;;11.20;99.90;;;;;;4995859;28;20045;-75
2022/10/31 07:50:28;;;;;;;28.40;11.52;;;13.10;99.90;;;;;;4995872;28;20050;-76
2022/10/31 07:53:04;;;;;;;31.35;10.55;;;10.60;99.90;;;;;;4995197;28;20026;-76
2022/10/31 07:55:30;;;;;;;23.33;10.15;;;10.80;99.90;;;;;;4995725;28;20026;-75
2022/10/31 07:58:01;;;;;;;27.10;9.95;;;10.90;99.90;;;;;;4994318;28;20026;-75
2022/10/31 08:00:27;;;;;;;25.92;10.60;;;10.90;99.90;;;;;;4995861;28;20037;-75
2022/10/31 08:03:17;;;;;;;22.00;9.68;;;10.90;99.90;;;;;;4994158;28;20022;-76
2022/10/31 08:05:45;;;;;;;25.60;10.00;;;11.00;99.90;;;;;;4995396;28;20053;-75
2022/10/31 08:08:11;;;;;;;22.10;10.63;;;11.00;99.90;;;;;;4995580;28;20393;-75
2022/10/31 08:10:37;;;;;;;22.77;10.25;;;11.10;99.90;;;;;;4995531;28;20073;-76
2022/10/31 08:13:13;;;;;;;28.77;11.07;;;11.20;99.90;;;;;;4995490;28;20056;-76
2022/10/31 08:15:41;;;;;;;22.23;10.13;;;11.30;99.90;;;;;;4995320;28;20033;-76
2022/10/31 08:18:13;;;;;;;32.00;11.55;;;11.30;99.90;;;;;;4995371;28;20026;-76
2022/10/31 08:20:40;;;;;;;25.35;9.57;;;11.40;99.90;;;;;;4995941;28;20026;-76
2022/10/31 08:23:06;;;;;;;26.95;9.52;;;11.50;99.90;;;;;;4993243;28;20093;-75
2022/10/31 08:25:33;;;;;;;26.00;10.52;;;11.60;99.90;;;;;;4993876;28;20023;-76
2022/10/31 08:27:59;;;;;;;24.63;10.60;;;11.60;99.90;;;;;;4994023;28;20030;-76
2022/10/31 08:30:27;;;;;;;21.65;10.05;;;11.70;99.90;;;;;;4995087;28;20022;-77
2022/10/31 08:33:00;;;;;;;25.43;10.57;;;11.70;99.90;;;;;;4993948;28;20065;-76
2022/10/31 08:35:25;;;;;;;19.45;8.95;;;11.80;99.90;;;;;;4995203;28;20111;-75
2022/10/31 08:37:58;;;;;;;25.15;10.60;;;11.80;99.90;;;;;;4995101;28;20058;-75
2022/10/31 08:40:25;;;;;;;25.58;9.77;;;11.80;99.90;;;;;;4993674;28;20070;-75
2022/10/31 08:43:00;;;;;;;24.33;11.32;;;11.90;99.90;;;;;;4994868;28;20031;-75
2022/10/31 08:45:27;;;;;;;26.90;10.88;;;11.90;99.90;;;;;;4993729;28;20034;-75
2022/10/31 08:47:56;;;;;;;24.15;11.70;;;11.90;99.90;;;;;;4995419;28;20050;-75
2022/10/31 08:50:21;;;;;;;21.30;11.73;;;12.00;99.90;;;;;;4994802;28;20030;-75
2022/10/31 08:52:47;;;;;;;26.10;11.23;;;12.00;99.90;;;;;;4994673;28;20026;-75
2022/10/31 08:55:12;;;;;;;22.85;11.48;;;12.00;99.90;;;;;;4994695;28;20034;-76
2022/10/31 08:57:38;;;;;;;24.45;11.80;;;12.00;99.90;;;;;;4993461;28;20139;-75
2022/10/31 09:00:05;;;;;;;23.58;11.80;;;12.00;99.90;;;;;;4993390;28;20073;-75
2022/10/31 09:02:31;;;;;;;24.02;11.18;;;;;;;;;;4993190;28;20034;-75
2022/10/31 09:04:56;;;;;;;22.60;10.80;;;12.10;99.90;;;;;;4993312;28;20489;-75
2022/10/31 09:07:22;;;;;;;23.88;11.38;;;12.20;99.90;;;;;;4994599;28;20042;-76
2022/10/31 09:09:47;;;;;;;30.48;12.18;;;12.30;99.90;;;;;;4994909;28;20022;-76
2022/10/31 09:12:13;;;;;;;27.42;11.43;;;12.70;99.90;;;;;;4993295;28;20429;-76
2022/10/31 09:14:38;;;;;;;27.73;11.40;;;12.40;99.90;;;;;;4992959;28;20089;-76
2022/10/31 09:17:04;;;;;;;28.00;12.00;;;12.60;99.90;;;;;;4994293;28;20066;-76
2022/10/31 09:19:30;;;;;;;25.83;11.68;;;12.70;99.90;;;;;;4994422;28;20499;-76
2022/10/31 09:21:55;;;;;;;29.10;12.48;;;12.80;99.90;;;;;;4993049;28;20398;-76
2022/10/31 09:24:21;;;;;;;28.52;13.27;;;13.50;99.90;;;;;;4993969;28;20034;-77
2022/10/31 09:26:47;;;;;;;25.23;12.55;;;13.20;99.90;;;;;;4992966;28;20045;-77
2022/10/31 09:29:12;;;;;;;22.73;11.50;;;13.40;99.90;;;;;;4994780;28;20018;-76
2022/10/31 09:31:38;;;;;;;25.98;12.73;;;13.50;99.90;;;;;;4994258;28;20030;-76
2022/10/31 09:34:04;;;;;;;28.08;13.23;;;13.70;99.90;;;;;;4992841;28;20026;-76
2022/10/31 09:36:29;;;;;;;26.75;12.65;;;13.70;99.90;;;;;;4994147;28;20057;-76
2022/10/31 09:38:55;;;;;;;30.15;12.02;;;13.70;99.90;;;;;;4993970;28;20019;-76
2022/10/31 09:41:50;;;;;;;23.77;11.68;;;13.80;99.90;;;;;;4993946;28;20081;-76
2022/10/31 09:44:15;;;;;;;26.23;12.18;;;13.80;99.90;;;;;;4993961;28;20532;-76
2022/10/31 09:47:00;;;;;;;30.63;11.98;;;13.90;99.90;;;;;;4992665;28;20030;-76
2022/10/31 09:49:49;;;;;;;23.00;11.10;;;14.00;99.90;;;;;;4992815;28;20027;-74
2022/10/31 09:52:21;;;;;;;26.35;12.02;;;14.00;99.90;;;;;;4967523;28;20026;-76
2022/10/31 09:54:56;;;;;;;18.52;10.15;;;14.00;99.90;;;;;;4993753;28;20022;-76
2022/10/31 09:57:28;;;;;;;19.23;9.50;;;14.10;99.90;;;;;;4994406;28;20104;-76
2022/10/31 09:59:54;;;;;;;25.13;10.43;;;14.10;99.90;;;;;;4992916;28;20030;-75
2022/10/31 10:02:36;;;;;;;19.17;9.60;;;14.20;99.90;;;;;;4993821;28;20038;-75
2022/10/31 10:05:06;;;;;;;19.80;10.10;;;14.30;99.90;;;;;;4993700;28;20030;-75
2022/10/31 10:07:40;;;;;;;19.45;9.77;;;14.30;99.90;;;;;;4993765;28;20059;-75
2022/10/31 10:10:19;;;;;;;21.58;9.98;;;14.30;99.90;;;;;;4992512;28;20022;-73
2022/10/31 10:13:05;;;;;;;15.65;8.15;;;14.40;99.90;;;;;;4992636;28;20137;-75
2022/10/31 10:16:00;;;;;;;18.08;8.20;;;14.40;99.90;;;;;;4992464;28;20141;-74
2022/10/31 10:19:04;;;;;;;20.50;8.70;;;14.50;99.90;;;;;;4994280;28;20427;-76
2022/10/31 10:21:42;;;;;;;15.75;7.03;;;14.60;99.90;;;;;;4958717;28;20065;-75
2022/10/31 10:24:10;;;;;;;12.53;5.90;;;14.70;99.90;;;;;;4992450;28;20054;-75
2022/10/31 10:26:40;;;;;;;13.40;6.13;;;14.90;99.90;;;;;;4993720;28;20030;-76
2022/10/31 10:29:30;;;;;;;17.73;7.35;;;14.90;99.90;;;;;;4993744;28;20046;-75
2022/10/31 10:31:59;;;;;;;13.60;6.22;;;15.00;99.90;;;;;;4993966;28;20520;-76
2022/10/31 10:34:45;;;;;;;15.82;6.30;;;15.10;99.90;;;;;;4992200;28;20022;-76
2022/10/31 10:37:25;;;;;;;20.20;6.93;;;15.30;99.90;;;;;;4993606;28;20034;-76
2022/10/31 10:39:56;;;;;;;17.70;6.90;;;15.30;99.90;;;;;;4994162;28;20156;-76
2022/10/31 10:48:24;;;;;;;12.70;6.30;;;15.50;99.90;;;;;;4978143;28;20067;-79
2022/10/31 10:50:52;;;;;;;11.15;6.57;;;15.60;99.90;;;;;;4990526;28;20041;-77
2022/10/31 10:54:00;;;;;;;18.08;7.22;;;15.80;99.90;;;;;;4996447;28;20477;-77
2022/10/31 10:56:46;;;;;;;12.02;6.05;;;15.80;99.90;;;;;;4996620;28;20393;-76
2022/10/31 10:59:15;;;;;;;15.63;6.72;;;16.00;99.90;;;;;;4992205;28;20030;-77
2022/10/31 11:01:41;;;;;;;14.52;7.20;;;16.00;99.90;;;;;;4997095;28;20031;-75
2022/10/31 11:04:26;;;;;;;16.10;6.55;;;16.80;99.90;;;;;;4997488;28;20027;-76
2022/10/31 11:07:06;;;;;;;15.18;6.03;;;16.00;99.90;;;;;;4997400;28;20030;-76
2022/10/31 11:09:33;;;;;;;15.07;6.05;;;16.10;99.90;;;;;;4995471;28;20023;-75
2022/10/31 11:12:05;;;;;;;13.25;6.38;;;16.00;99.90;;;;;;4995358;28;20026;-76
2022/10/31 11:14:30;;;;;;;14.70;6.32;;;16.00;99.90;;;;;;4997658;28;20026;-76
2022/10/31 11:17:10;;;;;;;15.88;7.00;;;16.10;99.90;;;;;;4996556;28;20030;-76
2022/10/31 11:19:36;;;;;;;16.33;6.78;;;16.10;99.90;;;;;;4996518;28;20502;-76
2022/10/31 11:22:07;;;;;;;12.68;6.28;;;16.10;99.90;;;;;;4996486;28;20018;-76
2022/10/31 11:24:39;;;;;;;17.27;7.43;;;16.20;99.90;;;;;;4995901;28;20120;-77
2022/10/31 11:27:25;;;;;;;19.67;8.55;;;16.20;99.90;;;;;;4995106;28;20046;-76
2022/10/31 11:29:51;;;;;;;15.48;7.35;;;16.30;99.90;;;;;;4996182;28;20092;-76
2022/10/31 11:32:25;;;;;;;16.70;8.15;;;16.40;99.90;;;;;;4996125;28;20018;-76
2022/10/31 11:34:57;;;;;;;18.20;8.38;;;16.70;99.90;;;;;;4996195;28;20029;-76
2022/10/31 11:37:30;;;;;;;21.05;9.13;;;16.50;99.90;;;;;;4994812;28;20041;-76
2022/10/31 11:39:59;;;;;;;20.83;8.88;;;16.60;99.90;;;;;;4994805;28;20113;-76
2022/10/31 11:42:27;;;;;;;22.52;10.05;;;16.60;99.90;;;;;;4996318;28;20022;-76
2022/10/31 11:44:54;;;;;;;;;;;16.70;99.90;;;;;;4994968;28;20038;-76
2022/10/31 11:47:29;;;;;;;23.20;8.75;;;16.70;99.90;;;;;;4994742;28;19909;-76
2022/10/31 11:49:56;;;;;;;24.40;9.77;;;16.60;99.90;;;;;;4996399;28;20069;-76
2022/10/31 11:52:25;;;;;;;22.02;9.95;;;16.50;99.90;;;;;;4995832;28;20022;-76
2022/10/31 11:54:51;;;;;;;;;;;16.50;99.90;;;;;;4994772;28;20371;-76
2022/10/31 11:57:25;;;;;;;25.90;10.20;;;16.40;99.90;;;;;;4994462;28;19949;-76
2022/10/31 11:59:56;;;;;;;29.00;10.93;;;16.40;99.90;;;;;;4994448;28;20035;-75
2022/10/31 12:02:22;;;;;;;27.13;10.45;;;16.20;99.90;;;;;;4994410;28;20030;-76
2022/10/31 12:05:00;;;;;;;25.75;10.93;;;16.30;99.90;;;;;;4996211;28;20034;-76
2022/10/31 12:07:26;;;;;;;;;;;16.20;99.90;;;;;;4996532;28;20421;-77
2022/10/31 12:09:51;;;;;;;21.25;10.18;;;16.20;99.90;;;;;;4995579;28;19936;-76
2022/10/31 12:12:35;;;;;;;22.77;10.00;;;16.20;99.90;;;;;;4995434;28;20026;-76
2022/10/31 12:15:27;;;;;;;23.48;10.93;;;16.20;99.90;;;;;;4995934;28;20076;-76
2022/10/31 12:18:20;;;;;;;27.42;9.73;;;16.30;99.90;;;;;;4994295;28;20366;-75
2022/10/31 12:20:58;;;;;;;24.85;10.13;;;16.20;99.90;;;;;;4995363;28;20446;-75
2022/10/31 12:23:39;;;;;;;27.98;11.50;;;16.20;99.90;;;;;;4994041;28;20038;-77
2022/10/31 12:26:22;;;;;;;29.67;11.48;;;16.20;99.90;;;;;;4996326;28;20027;-76
2022/10/31 12:29:15;;;;;;;30.35;11.35;;;16.20;99.90;;;;;;4994409;28;20383;-76
2022/10/31 12:32:03;;;;;;;28.98;11.68;;;16.20;99.90;;;;;;4993929;28;20496;-76
2022/10/31 12:34:47;;;;;;;34.42;12.65;;;16.20;99.90;;;;;;4995039;28;20026;-76
2022/10/31 12:37:36;;;;;;;29.77;11.52;;;16.30;99.90;;;;;;4995049;28;20018;-76
2022/10/31 12:40:24;;;;;;;25.83;11.75;;;16.40;99.90;;;;;;4993813;28;20030;-76
2022/10/31 12:42:59;;;;;;;26.75;10.52;;;16.50;99.90;;;;;;4994966;28;20133;-75
2022/10/31 12:45:36;;;;;;;26.80;11.10;;;16.60;99.90;;;;;;4994845;28;20026;-75
2022/10/31 12:48:11;;;;;;;31.88;11.95;;;16.60;99.90;;;;;;4994927;28;20093;-73
2022/10/31 12:50:37;;;;;;;31.38;10.77;;;16.70;99.90;;;;;;4994762;28;20110;-77
2022/10/31 12:53:18;;;;;;;30.48;10.63;;;16.80;99.90;;;;;;4994696;28;20058;-75
2022/10/31 12:55:44;;;;;;;27.55;11.25;;;16.90;99.90;;;;;;4994615;28;20030;-76
2022/10/31 12:58:35;;;;;;;20.63;9.73;;;17.00;99.90;;;;;;4993485;28;20041;-77
2022/10/31 13:01:18;;;;;;;19.70;9.80;;;17.00;99.90;;;;;;4991343;28;20503;-76
2022/10/31 13:04:05;;;;;;;35.45;10.43;;;17.00;99.90;;;;;;4993576;28;20058;-76
2022/10/31 13:06:40;;;;;;;34.03;11.25;;;17.00;99.90;;;;;;4993255;28;20042;-76
2022/10/31 13:09:10;;;;;;;29.10;10.68;;;17.00;99.90;;;;;;4992957;28;20466;-76